createdAt,value
2023-04-08T00:01:28.597Z,7.18
2023-04-08T00:03:56.317Z,7.78
2023-04-08T00:06:23.725Z,7.68
2023-04-08T00:08:51.207Z,8.10
2023-04-08T00:11:18.782Z,7.43
2023-04-08T00:13:46.109Z,7.32
2023-04-08T00:16:13.736Z,7.13
2023-04-08T00:18:41.466Z,7.38
2023-04-08T00:21:08.765Z,7.72
2023-04-08T00:23:36.374Z,7.97
2023-04-08T00:26:03.666Z,8.02
2023-04-08T00:28:31.140Z,6.63
2023-04-08T00:30:58.463Z,8.20
2023-04-08T00:33:26.174Z,8.10
2023-04-08T00:35:53.641Z,8.07
2023-04-08T00:38:21.062Z,7.90
2023-04-08T00:40:48.596Z,7.72
2023-04-08T00:43:16.818Z,7.78
2023-04-08T00:45:45.486Z,7.70
2023-04-08T00:48:12.610Z,8.07
2023-04-08T00:50:40.030Z,8.35
2023-04-08T00:53:07.414Z,8.00
2023-04-08T00:55:34.775Z,7.95
2023-04-08T00:58:02.050Z,8.00
2023-04-08T01:00:30.997Z,8.75
2023-04-08T01:03:09.350Z,8.18
2023-04-08T01:05:55.832Z,8.40
2023-04-08T01:08:24.437Z,8.88
2023-04-08T01:10:56.227Z,9.15
2023-04-08T01:13:24.833Z,9.98
2023-04-08T01:15:53.653Z,9.15
2023-04-08T01:18:32.424Z,10.35
2023-04-08T01:21:00.361Z,9.35
2023-04-08T01:23:39.071Z,10.10
2023-04-08T01:26:06.771Z,9.38
2023-04-08T01:28:34.789Z,9.05
2023-04-08T01:31:04.250Z,9.73
2023-04-08T01:33:32.603Z,9.05
2023-04-08T01:36:01.291Z,9.68
2023-04-08T01:38:29.061Z,10.18
2023-04-08T01:40:56.610Z,10.65
2023-04-08T01:43:26.163Z,9.88
2023-04-08T01:45:58.784Z,11.27
2023-04-08T01:48:26.912Z,10.37
2023-04-08T01:50:54.448Z,9.90
2023-04-08T01:53:22.876Z,10.65
2023-04-08T01:55:52.975Z,10.88
2023-04-08T01:58:24.772Z,11.38
2023-04-08T02:00:52.704Z,11.77
2023-04-08T02:03:21.748Z,11.00
2023-04-08T02:05:49.465Z,10.88
2023-04-08T02:08:16.793Z,10.82
2023-04-08T02:10:44.151Z,11.65
2023-04-08T02:13:11.551Z,11.48
2023-04-08T02:15:39.523Z,10.30
2023-04-08T02:18:12.011Z,10.60
2023-04-08T02:20:41.715Z,10.85
2023-04-08T02:23:16.651Z,11.18
2023-04-08T02:25:45.655Z,11.55
2023-04-08T02:28:14.221Z,11.57
2023-04-08T02:30:50.470Z,12.00
2023-04-08T02:33:22.349Z,12.05
2023-04-08T02:35:56.305Z,12.23
2023-04-08T02:38:24.490Z,12.07
2023-04-08T02:40:52.557Z,12.88
2023-04-08T02:43:20.221Z,14.13
2023-04-08T02:45:48.019Z,13.88
2023-04-08T02:48:16.071Z,13.35
2023-04-08T02:50:44.917Z,13.18
2023-04-08T02:53:17.907Z,13.05
2023-04-08T02:55:45.480Z,12.70
2023-04-08T02:58:12.714Z,14.13
2023-04-08T03:00:40.057Z,14.80
2023-04-08T03:03:07.439Z,14.35
2023-04-08T03:05:34.908Z,14.98
2023-04-08T03:08:02.264Z,15.48
2023-04-08T03:10:39.356Z,15.57
2023-04-08T03:13:08.715Z,16.38
2023-04-08T03:15:38.316Z,15.73
2023-04-08T03:18:06.082Z,14.65
2023-04-08T03:20:33.607Z,16.73
2023-04-08T03:23:00.829Z,16.02
2023-04-08T03:25:29.279Z,15.15
2023-04-08T03:27:56.989Z,15.88
2023-04-08T03:30:24.487Z,15.98
2023-04-08T03:32:51.823Z,15.80
2023-04-08T03:35:19.257Z,15.18
2023-04-08T03:37:47.148Z,15.45
2023-04-08T03:40:14.648Z,16.25
2023-04-08T03:42:42.058Z,17.00
2023-04-08T03:45:09.658Z,16.30
2023-04-08T03:47:36.914Z,16.52
2023-04-08T03:50:04.571Z,17.20
2023-04-08T03:52:31.759Z,17.25
2023-04-08T03:55:01.895Z,16.27
2023-04-08T03:57:29.265Z,16.77
2023-04-08T03:59:56.741Z,17.17
2023-04-08T04:02:24.232Z,17.55
2023-04-08T04:04:51.840Z,17.80
2023-04-08T04:07:19.152Z,19.00
2023-04-08T04:09:46.433Z,18.58
2023-04-08T04:12:13.578Z,19.48
2023-04-08T04:14:40.831Z,19.90
2023-04-08T04:17:08.219Z,19.50
2023-04-08T04:19:35.480Z,18.10
2023-04-08T04:22:02.846Z,18.27
2023-04-08T04:24:30.717Z,18.08
2023-04-08T04:26:58.025Z,18.35
2023-04-08T04:29:25.460Z,18.27
2023-04-08T04:31:52.746Z,18.92
2023-04-08T04:34:20.924Z,18.35
2023-04-08T04:36:51.023Z,19.77
2023-04-08T04:39:19.253Z,16.63
2023-04-08T04:41:53.241Z,16.38
2023-04-08T04:44:20.695Z,17.30
2023-04-08T04:46:49.659Z,17.85
2023-04-08T04:49:17.575Z,17.95
2023-04-08T04:51:47.784Z,16.98
2023-04-08T04:54:15.056Z,16.88
2023-04-08T04:56:43.796Z,15.48
2023-04-08T04:59:11.185Z,16.42
2023-04-08T05:01:40.997Z,15.43
2023-04-08T05:04:08.559Z,17.55
2023-04-08T05:06:36.048Z,16.80
2023-04-08T05:09:03.525Z,18.67
2023-04-08T05:11:31.498Z,17.27
2023-04-08T05:13:58.818Z,16.60
2023-04-08T05:16:26.473Z,15.23
2023-04-08T05:18:55.843Z,14.02
2023-04-08T05:21:24.102Z,16.45
2023-04-08T05:23:53.370Z,15.65
2023-04-08T05:26:21.897Z,16.55
2023-04-08T05:28:49.861Z,16.67
2023-04-08T05:31:17.785Z,15.20
2023-04-08T05:33:49.664Z,14.02
2023-04-08T05:36:16.994Z,15.70
2023-04-08T05:38:44.491Z,16.55
2023-04-08T05:41:12.276Z,57.60
2023-04-08T05:43:39.577Z,53.67
2023-04-08T05:46:10.656Z,14.55
2023-04-08T05:48:38.166Z,15.93
2023-04-08T05:51:05.621Z,12.07
2023-04-08T05:53:32.906Z,19.80
2023-04-08T05:56:00.196Z,11.38
2023-04-08T05:58:27.431Z,11.40
2023-04-08T06:00:55.803Z,11.65
2023-04-08T06:03:23.180Z,11.35
2023-04-08T06:05:50.605Z,11.85
2023-04-08T06:08:17.707Z,10.00
2023-04-08T06:10:51.850Z,10.65
2023-04-08T06:13:20.972Z,9.70
2023-04-08T06:15:51.421Z,14.18
2023-04-08T06:18:18.650Z,9.27
2023-04-08T06:20:46.246Z,11.77
2023-04-08T06:23:13.431Z,23.88
2023-04-08T06:25:41.020Z,23.80
2023-04-08T06:28:09.392Z,12.55
2023-04-08T06:30:36.661Z,9.68
2023-04-08T06:33:04.153Z,19.30
2023-04-08T06:35:32.621Z,10.18
2023-04-08T06:38:00.295Z,11.65
2023-04-08T06:40:28.135Z,10.35
2023-04-08T06:42:55.738Z,18.00
2023-04-08T06:45:23.187Z,9.95
2023-04-08T06:47:51.255Z,9.63
2023-04-08T06:50:25.272Z,10.68
2023-04-08T06:52:52.685Z,11.07
2023-04-08T06:55:20.869Z,13.30
2023-04-08T06:57:48.210Z,10.13
2023-04-08T07:00:15.596Z,9.18
2023-04-08T07:02:43.318Z,10.20
2023-04-08T07:05:10.969Z,9.15
2023-04-08T07:07:38.568Z,7.90
2023-04-08T07:10:07.272Z,7.47
2023-04-08T07:12:35.436Z,7.68
2023-04-08T07:15:02.702Z,8.80
2023-04-08T07:17:29.883Z,11.05
2023-04-08T07:19:57.130Z,9.82
2023-04-08T07:22:24.304Z,9.23
2023-04-08T07:24:52.120Z,9.82
2023-04-08T07:27:19.396Z,6.40
2023-04-08T07:29:46.736Z,5.30
2023-04-08T07:32:14.319Z,4.82
2023-04-08T07:34:41.812Z,5.20
2023-04-08T07:37:08.927Z,5.38
2023-04-08T07:39:36.392Z,4.60
2023-04-08T07:42:03.618Z,4.28
2023-04-08T07:44:31.004Z,4.18
2023-04-08T07:46:58.346Z,4.32
2023-04-08T07:49:25.684Z,4.40
2023-04-08T07:51:53.319Z,3.60
2023-04-08T07:54:20.828Z,4.28
2023-04-08T07:56:48.068Z,3.33
2023-04-08T07:59:15.613Z,4.10
2023-04-08T08:01:47.658Z,4.93
2023-04-08T08:04:18.900Z,4.28
2023-04-08T08:06:46.617Z,3.75
2023-04-08T08:09:16.354Z,3.60
2023-04-08T08:11:44.986Z,4.10
2023-04-08T08:14:14.034Z,4.00
2023-04-08T08:16:41.743Z,4.50
2023-04-08T08:19:10.501Z,3.97
2023-04-08T08:21:45.953Z,4.15
2023-04-08T08:24:13.423Z,4.85
2023-04-08T08:26:43.296Z,4.22
2023-04-08T08:29:11.573Z,4.25
2023-04-08T08:31:39.514Z,4.13
2023-04-08T08:34:07.061Z,4.13
2023-04-08T08:36:34.916Z,4.30
2023-04-08T08:39:02.283Z,4.32
2023-04-08T08:41:34.154Z,4.45
2023-04-08T08:44:01.394Z,4.70
2023-04-08T08:46:28.649Z,4.75
2023-04-08T08:48:55.900Z,4.75
2023-04-08T08:51:23.384Z,4.43
2023-04-08T08:53:51.091Z,4.30
2023-04-08T08:56:19.117Z,4.07
2023-04-08T08:58:47.832Z,4.30
2023-04-08T09:01:34.183Z,4.35
2023-04-08T09:04:08.660Z,4.78
2023-04-08T09:06:36.882Z,5.25
2023-04-08T09:09:06.215Z,4.70
2023-04-08T09:11:33.436Z,4.38
2023-04-08T09:14:00.910Z,5.82
2023-04-08T09:16:29.211Z,53.25
2023-04-08T09:18:59.077Z,18.23
2023-04-08T09:21:27.412Z,5.20
2023-04-08T09:23:54.999Z,7.88
2023-04-08T09:26:23.543Z,5.05
2023-04-08T09:29:06.123Z,5.80
2023-04-08T09:31:41.888Z,4.78
2023-04-08T09:34:13.568Z,4.65
2023-04-08T09:36:40.864Z,4.88
2023-04-08T09:39:08.343Z,5.28
2023-04-08T09:41:36.299Z,5.28
2023-04-08T09:44:08.518Z,5.53
2023-04-08T09:46:44.782Z,5.15
2023-04-08T09:49:13.825Z,5.57
2023-04-08T09:51:53.397Z,5.15
2023-04-08T09:54:23.146Z,4.63
2023-04-08T09:56:57.193Z,5.10
2023-04-08T09:59:28.775Z,5.25
2023-04-08T10:01:58.680Z,4.50
2023-04-08T10:04:27.677Z,4.47
2023-04-08T10:07:04.871Z,4.93
2023-04-08T10:09:32.772Z,9.38
2023-04-08T10:11:59.991Z,4.97
2023-04-08T10:14:28.918Z,6.70
2023-04-08T10:17:14.904Z,6.45
2023-04-08T10:19:47.905Z,6.97
2023-04-08T10:22:30.425Z,6.65
2023-04-08T10:25:16.880Z,6.10
2023-04-08T10:27:44.857Z,6.20
2023-04-08T10:30:27.297Z,6.00
2023-04-08T10:32:56.693Z,7.47
2023-04-08T10:35:31.357Z,6.50
2023-04-08T10:37:59.159Z,7.40
2023-04-08T10:40:26.976Z,8.38
2023-04-08T10:42:57.555Z,8.80
2023-04-08T10:45:24.828Z,8.65
2023-04-08T10:47:52.118Z,8.60
2023-04-08T10:50:23.783Z,9.23
2023-04-08T10:52:54.934Z,8.63
2023-04-08T10:55:28.772Z,8.23
2023-04-08T10:57:58.213Z,7.82
2023-04-08T11:00:35.426Z,8.18
2023-04-08T11:03:04.514Z,7.93
2023-04-08T11:05:32.247Z,7.75
2023-04-08T11:08:00.216Z,7.80
2023-04-08T11:10:29.177Z,161.48
2023-04-08T11:13:10.025Z,11.75
2023-04-08T11:15:38.243Z,9.50
2023-04-08T11:18:06.493Z,8.38
2023-04-08T11:20:37.163Z,9.68
2023-04-08T11:23:05.540Z,9.85
2023-04-08T11:25:34.432Z,21.75
2023-04-08T11:28:01.876Z,20.08
2023-04-08T11:30:30.971Z,34.85
2023-04-08T11:32:58.375Z,23.17
2023-04-08T11:35:31.556Z,80.47
2023-04-08T11:37:59.734Z,36.63
2023-04-08T11:40:27.577Z,29.80
2023-04-08T11:42:55.011Z,23.65
2023-04-08T11:45:23.852Z,29.67
2023-04-08T11:47:51.171Z,31.95
2023-04-08T11:50:25.527Z,21.60
2023-04-08T11:52:54.034Z,40.90
2023-04-08T11:55:28.818Z,33.65
2023-04-08T11:57:57.237Z,20.80
2023-04-08T12:00:24.971Z,17.48
2023-04-08T12:02:53.269Z,24.50
2023-04-08T12:05:21.207Z,14.48
2023-04-08T12:07:48.858Z,13.60
2023-04-08T12:10:16.989Z,13.32
2023-04-08T12:12:44.305Z,12.60
2023-04-08T12:15:11.703Z,13.50
2023-04-08T12:17:39.820Z,14.27
2023-04-08T12:20:08.349Z,14.82
2023-04-08T12:22:35.895Z,16.40
2023-04-08T12:25:04.476Z,17.15
2023-04-08T12:27:35.000Z,18.02
2023-04-08T12:30:05.322Z,31.98
2023-04-08T12:32:33.677Z,14.73
2023-04-08T12:35:01.556Z,16.00
2023-04-08T12:37:28.913Z,14.40
2023-04-08T12:39:56.112Z,16.98
2023-04-08T12:42:23.343Z,15.60
2023-04-08T12:44:50.522Z,15.48
2023-04-08T12:47:17.945Z,16.33
2023-04-08T12:49:49.709Z,20.55
2023-04-08T12:52:18.497Z,15.63
2023-04-08T12:54:45.933Z,16.00
2023-04-08T12:57:13.108Z,17.75
2023-04-08T12:59:40.413Z,16.67
2023-04-08T13:02:08.292Z,15.80
2023-04-08T13:04:35.653Z,17.70
2023-04-08T13:07:04.367Z,17.63
2023-04-08T13:09:31.631Z,18.92
2023-04-08T13:11:59.631Z,17.58
2023-04-08T13:14:27.499Z,17.98
2023-04-08T13:16:54.650Z,17.45
2023-04-08T13:19:21.921Z,19.80
2023-04-08T13:21:49.149Z,17.55
2023-04-08T13:24:16.876Z,17.88
2023-04-08T13:26:44.115Z,16.35
2023-04-08T13:29:11.872Z,18.67
2023-04-08T13:31:39.361Z,18.58
2023-04-08T13:34:06.773Z,22.10
2023-04-08T13:36:33.930Z,29.38
2023-04-08T13:39:01.262Z,21.90
2023-04-08T13:41:28.991Z,19.92
2023-04-08T13:43:56.874Z,18.75
2023-04-08T13:46:24.663Z,18.15
2023-04-08T13:48:52.243Z,19.10
2023-04-08T13:51:19.584Z,23.20
2023-04-08T13:53:47.175Z,19.88
2023-04-08T13:56:14.310Z,17.95
2023-04-08T13:58:41.705Z,18.83
2023-04-08T14:01:08.894Z,18.40
2023-04-08T14:03:36.766Z,18.45
2023-04-08T14:06:04.080Z,23.30
2023-04-08T14:08:31.438Z,23.90
2023-04-08T14:10:59.203Z,25.08
2023-04-08T14:13:26.585Z,22.25
2023-04-08T14:15:55.014Z,33.60
2023-04-08T14:18:22.368Z,20.65
2023-04-08T14:20:49.626Z,20.80
2023-04-08T14:23:17.174Z,20.38
2023-04-08T14:25:44.417Z,20.77
2023-04-08T14:28:11.665Z,20.77
2023-04-08T14:30:38.970Z,20.60
2023-04-08T14:33:06.419Z,28.70
2023-04-08T14:35:33.830Z,20.90
2023-04-08T14:38:01.546Z,21.48
2023-04-08T14:40:28.786Z,21.30
2023-04-08T14:42:55.967Z,22.92
2023-04-08T14:45:23.316Z,28.35
2023-04-08T14:47:50.688Z,26.35
2023-04-08T14:53:25.718Z,24.95
2023-04-08T14:55:52.934Z,25.17
2023-04-08T14:58:22.761Z,27.33
2023-04-08T15:00:50.148Z,28.48
2023-04-08T15:03:18.967Z,29.25
2023-04-08T15:05:46.260Z,28.95
2023-04-08T15:08:13.617Z,27.50
2023-04-08T15:10:40.815Z,27.33
2023-04-08T15:13:08.000Z,28.25
2023-04-08T15:15:36.501Z,31.10
2023-04-08T15:18:03.810Z,27.75
2023-04-08T15:20:30.994Z,25.83
2023-04-08T15:22:58.334Z,33.72
2023-04-08T15:25:25.544Z,28.42
2023-04-08T15:27:53.200Z,28.83
2023-04-08T15:30:25.106Z,35.30
2023-04-08T15:32:53.020Z,26.88
2023-04-08T15:35:20.836Z,27.60
2023-04-08T15:37:47.987Z,33.20
2023-04-08T15:40:15.203Z,30.88
2023-04-08T15:42:42.658Z,30.63
2023-04-08T15:45:15.376Z,28.38
2023-04-08T15:47:42.553Z,27.80
2023-04-08T15:50:10.126Z,29.25
2023-04-08T15:52:37.356Z,27.08
2023-04-08T15:55:04.634Z,27.13
2023-04-08T15:57:32.547Z,28.85
2023-04-08T15:59:59.819Z,27.67
2023-04-08T16:02:27.994Z,26.38
2023-04-08T16:04:55.639Z,27.73
2023-04-08T16:07:22.878Z,25.98
2023-04-08T16:09:50.071Z,28.05
2023-04-08T16:12:17.556Z,27.15
2023-04-08T16:14:44.724Z,26.92
2023-04-08T16:17:12.039Z,26.25
2023-04-08T16:19:39.369Z,26.45
2023-04-08T16:22:06.949Z,27.20
2023-04-08T16:24:36.633Z,27.08
2023-04-08T16:27:04.574Z,25.25
2023-04-08T16:29:31.778Z,27.50
2023-04-08T16:31:58.977Z,27.38
2023-04-08T16:34:26.829Z,26.88
2023-04-08T16:36:54.250Z,24.65
2023-04-08T16:39:21.485Z,27.65
2023-04-08T16:41:48.771Z,29.00
2023-04-08T16:44:16.234Z,25.42
2023-04-08T16:46:43.689Z,25.38
2023-04-08T16:49:13.401Z,23.45
2023-04-08T16:51:41.683Z,24.25
2023-04-08T16:54:08.849Z,25.00
2023-04-08T16:56:36.150Z,24.30
2023-04-08T16:59:05.478Z,24.73
2023-04-08T17:01:32.772Z,23.75
2023-04-08T17:04:01.620Z,24.30
2023-04-08T17:06:32.950Z,24.27
2023-04-08T17:09:00.308Z,23.98
2023-04-08T17:11:27.710Z,25.55
2023-04-08T17:13:56.077Z,24.50
2023-04-08T17:16:23.424Z,27.52
2023-04-08T17:18:51.758Z,26.05
2023-04-08T17:21:20.037Z,24.60
2023-04-08T17:23:47.408Z,24.33
2023-04-08T17:26:14.978Z,23.73
2023-04-08T17:28:50.638Z,22.83
2023-04-08T17:31:17.998Z,24.77
2023-04-08T17:33:45.393Z,25.60
2023-04-08T17:36:17.263Z,25.15
2023-04-08T17:38:47.181Z,24.63
2023-04-08T17:41:18.715Z,25.40
2023-04-08T17:43:53.973Z,24.63
2023-04-08T17:46:22.191Z,24.88
2023-04-08T17:48:49.387Z,24.77
2023-04-08T17:51:17.646Z,24.90
2023-04-08T17:53:45.044Z,24.98
2023-04-08T17:56:15.602Z,24.00
2023-04-08T18:01:54.921Z,23.92
2023-04-08T18:04:25.878Z,24.55
2023-04-08T18:07:05.963Z,25.35
2023-04-08T18:09:35.806Z,25.98
2023-04-08T18:12:03.016Z,25.65
2023-04-08T18:14:35.862Z,25.98
2023-04-08T18:17:05.219Z,25.60
2023-04-08T18:19:34.569Z,23.70
2023-04-08T18:22:01.782Z,25.02
2023-04-08T18:24:31.032Z,25.45
2023-04-08T18:27:04.472Z,24.42
2023-04-08T18:29:34.176Z,27.20
2023-04-08T18:32:01.612Z,26.17
2023-04-08T18:34:30.162Z,25.38
2023-04-08T18:36:58.685Z,26.77
2023-04-08T18:39:26.202Z,26.20
2023-04-08T18:42:02.854Z,26.05
2023-04-08T18:44:31.304Z,25.13
2023-04-08T18:46:58.567Z,26.40
2023-04-08T18:49:26.016Z,30.23
2023-04-08T18:52:02.022Z,30.75
2023-04-08T18:54:32.696Z,28.58
2023-04-08T18:57:00.085Z,28.83
2023-04-08T18:59:28.660Z,28.70
2023-04-08T19:01:56.546Z,29.67
2023-04-08T19:04:28.638Z,29.48
2023-04-08T19:06:56.995Z,30.23
2023-04-08T19:09:24.343Z,30.55
2023-04-08T19:11:51.739Z,36.05
2023-04-08T19:14:19.015Z,31.73
2023-04-08T19:16:47.877Z,32.38
2023-04-08T19:19:16.224Z,32.35
2023-04-08T19:21:44.214Z,32.08
2023-04-08T19:24:11.599Z,32.90
2023-04-08T19:26:39.505Z,33.47
2023-04-08T19:29:06.835Z,31.20
2023-04-08T19:31:35.600Z,32.53
2023-04-08T19:34:02.943Z,31.73
2023-04-08T19:36:30.918Z,31.40
2023-04-08T19:38:58.253Z,32.08
2023-04-08T19:41:25.478Z,32.80
2023-04-08T19:43:52.955Z,30.85
2023-04-08T19:46:20.431Z,30.25
2023-04-08T19:48:47.841Z,31.45
2023-04-08T19:51:24.743Z,31.20
2023-04-08T19:53:53.695Z,32.42
2023-04-08T19:56:22.290Z,31.73
2023-04-08T19:58:49.719Z,31.48
2023-04-08T20:01:19.255Z,33.05
2023-04-08T20:03:52.819Z,33.15
2023-04-08T20:06:23.347Z,34.35
2023-04-08T20:08:53.774Z,33.20
2023-04-08T20:11:21.556Z,33.78
2023-04-08T20:13:49.986Z,34.67
2023-04-08T20:16:17.264Z,34.60
2023-04-08T20:18:44.541Z,35.20
2023-04-08T20:21:13.974Z,33.63
2023-04-08T20:23:44.359Z,33.30
2023-04-08T20:26:12.931Z,34.17
2023-04-08T20:28:40.401Z,32.42
2023-04-08T20:31:07.810Z,33.55
2023-04-08T20:33:35.712Z,32.88
2023-04-08T20:36:03.490Z,32.47
2023-04-08T20:38:34.949Z,33.60
2023-04-08T20:41:02.204Z,32.85
2023-04-08T20:43:29.474Z,31.25
2023-04-08T20:45:58.853Z,32.80
2023-04-08T20:48:26.262Z,31.02
2023-04-08T20:50:53.558Z,31.95
2023-04-08T20:53:20.921Z,33.40
2023-04-08T20:55:48.080Z,31.52
2023-04-08T20:58:15.694Z,34.85
2023-04-08T21:00:42.879Z,36.60
2023-04-08T21:03:10.391Z,35.33
2023-04-08T21:05:38.192Z,36.83
2023-04-08T21:08:06.144Z,36.05
2023-04-08T21:10:33.297Z,36.72
2023-04-08T21:13:01.235Z,41.63
2023-04-08T21:15:28.546Z,38.33
2023-04-08T21:17:55.793Z,40.38
2023-04-08T21:20:23.252Z,39.85
2023-04-08T21:22:50.599Z,36.45
2023-04-08T21:25:18.362Z,35.72
2023-04-08T21:27:45.695Z,35.85
2023-04-08T21:30:13.098Z,38.78
2023-04-08T21:32:40.369Z,37.42
2023-04-08T21:35:07.694Z,38.33
2023-04-08T21:37:34.980Z,36.00
2023-04-08T21:40:02.167Z,36.28
2023-04-08T21:42:29.304Z,37.72
2023-04-08T21:44:56.675Z,36.70
2023-04-08T21:47:24.009Z,37.13
2023-04-08T21:49:51.622Z,38.10
2023-04-08T21:52:18.876Z,36.78
2023-04-08T21:54:49.972Z,38.78
2023-04-08T21:57:17.164Z,38.15
2023-04-08T21:59:44.536Z,36.55
2023-04-08T22:02:11.983Z,41.30
2023-04-08T22:04:39.495Z,110.47
2023-04-08T22:07:06.956Z,58.30
2023-04-08T22:09:34.088Z,41.30
2023-04-08T22:12:02.413Z,43.30
2023-04-08T22:14:29.707Z,41.30
2023-04-08T22:16:57.131Z,39.00
2023-04-08T22:19:24.463Z,38.08
2023-04-08T22:21:51.773Z,37.10
2023-04-08T22:24:19.538Z,38.97
2023-04-08T22:26:46.983Z,39.47
2023-04-08T22:29:14.358Z,38.42
2023-04-08T22:31:41.515Z,35.90
2023-04-08T22:34:08.798Z,36.22
2023-04-08T22:36:36.084Z,37.50
2023-04-08T22:39:03.944Z,36.45
2023-04-08T22:41:31.169Z,38.33
2023-04-08T22:43:58.378Z,37.10
2023-04-08T22:46:25.723Z,38.22
2023-04-08T22:48:53.150Z,39.25
2023-04-08T22:51:20.957Z,37.60
2023-04-08T22:53:48.079Z,36.70
2023-04-08T22:56:15.389Z,37.88
2023-04-08T22:58:42.630Z,40.63
2023-04-08T23:01:14.263Z,43.83
2023-04-08T23:03:41.766Z,37.70
2023-04-08T23:06:08.989Z,39.35
2023-04-08T23:08:36.333Z,37.45
2023-04-08T23:11:03.564Z,36.28
2023-04-08T23:13:30.922Z,37.92
2023-04-08T23:15:58.924Z,37.42
2023-04-08T23:18:26.441Z,36.78
2023-04-08T23:20:57.278Z,38.17
2023-04-08T23:23:25.034Z,35.50
2023-04-08T23:25:54.976Z,36.13
2023-04-08T23:28:22.870Z,36.50
2023-04-08T23:30:50.201Z,44.13
2023-04-08T23:33:17.429Z,38.50
2023-04-08T23:35:44.643Z,37.88
2023-04-08T23:38:11.905Z,36.60
2023-04-08T23:40:39.176Z,37.50
2023-04-08T23:43:06.308Z,38.20
2023-04-08T23:45:33.495Z,35.85
2023-04-08T23:48:00.940Z,36.67
2023-04-08T23:50:28.103Z,36.20
2023-04-08T23:52:55.316Z,34.10
2023-04-08T23:55:22.513Z,34.72
2023-04-08T23:57:50.828Z,34.50
